Portada
METAR-TAF:

METAR-TAF

Aeroports :

Horn Island, Austràlia

latitud: 10-35-11S, longitud: 142-07-24E, altitud: 13 m

Observació

L'informe es va fer fa 15 minuts, a les 14:00 UTC
Vent 12 kt del Sud-Est
Temperatura 28°C
Humitat 74%
Pressió 1010 hPa
Visibilitat 10 km o més
Núvols disperses a una alçada de 2200 ft
Cel ennuvolat a una alçada de 2900 ft
Cel ennuvolat a una alçada de 3500 ft

METAR: YHID 071400Z AUTO 13012KT 9999 // SCT022 BKN029 BKN035 28/23 Q1010

Hora: 00:15 (14:15 UTC)

Pronòstic

L'informe es va fer fa 2 hores i 56 minuts, a les 11:19 UTC
Pronòstic vàlid del 07 a les 12 UTC al 08 a les 12 UTC
Vent 7 kt del Est/Sud-Est
Visibilitat 10 km o més
Núvols disperses a una alçada de 2500 ft
A partir de les 07 a les 2300 UTC
Vent 14 kt del Est
Visibilitat 10 km o més
Escasses núvols a una alçada de 3000 ft

TAF: YHID 071119Z 0712/0812 12007KT 9999 SCT025 FM072300 09014KT 9999 FEW030

Observacions i pronòstics meteorològics de més de 4000 aeroports (METAR i TAF).

Les estacions disponibles són els punts grocs i vermells al mapa.

Posi el ratolí al punt desitjat per veure el nom de l'estació.

Feu clic per veure les observacions i els pronòstics meteorològics.

Per canviar el mapa: feu clic els botons verds amb una creu de color negre per apropar; al botó verd amb un guió per allunyar la imatge; o en les fletxes verdes per a mapes adjacents.


METAR-TAF: